sensor_id;sensor_type;location;lat;lon;timestamp;pressure;altitude;pressure_sealevel;temperature;humidity
66385;BME280;53426;55.872;37.462;2023-01-08T00:01:07;100629.84;;;-16.04;60.31
66385;BME280;53426;55.872;37.462;2023-01-08T00:03:33;100622.91;;;-16.08;59.50
66385;BME280;53426;55.872;37.462;2023-01-08T00:06:04;100628.84;;;-16.08;59.97
66385;BME280;53426;55.872;37.462;2023-01-08T00:08:31;100551.38;;;-16.44;59.83
66385;BME280;53426;55.872;37.462;2023-01-08T00:10:57;100632.44;;;-16.03;60.35
66385;BME280;53426;55.872;37.462;2023-01-08T00:13:23;100604.97;;;-16.13;60.02
66385;BME280;53426;55.872;37.462;2023-01-08T00:15:49;100627.16;;;-16.09;60.20
66385;BME280;53426;55.872;37.462;2023-01-08T00:18:15;100621.94;;;-16.12;60.21
66385;BME280;53426;55.872;37.462;2023-01-08T00:20:41;100627.25;;;-16.06;60.15
66385;BME280;53426;55.872;37.462;2023-01-08T00:23:14;100614.75;;;-16.01;60.51
66385;BME280;53426;55.872;37.462;2023-01-08T00:25:41;100636.25;;;-15.92;59.96
66385;BME280;53426;55.872;37.462;2023-01-08T00:28:07;100632.91;;;-15.91;60.20
66385;BME280;53426;55.872;37.462;2023-01-08T00:30:32;100630.38;;;-15.91;60.51
66385;BME280;53426;55.872;37.462;2023-01-08T00:32:58;100652.88;;;-15.78;60.73
66385;BME280;53426;55.872;37.462;2023-01-08T00:35:24;100564.13;;;-16.21;60.29
66385;BME280;53426;55.872;37.462;2023-01-08T00:37:50;100632.53;;;-15.79;60.54
66385;BME280;53426;55.872;37.462;2023-01-08T00:40:16;100604.91;;;-15.94;60.52
66385;BME280;53426;55.872;37.462;2023-01-08T00:42:42;100652.91;;;-15.76;60.85
66385;BME280;53426;55.872;37.462;2023-01-08T00:45:09;100645.50;;;-15.72;59.89
66385;BME280;53426;55.872;37.462;2023-01-08T00:47:35;100644.88;;;-15.66;60.08
66385;BME280;53426;55.872;37.462;2023-01-08T00:50:01;100639.41;;;-15.77;59.85
66385;BME280;53426;55.872;37.462;2023-01-08T00:52:28;100630.16;;;-15.75;59.85
66385;BME280;53426;55.872;37.462;2023-01-08T00:54:54;100627.78;;;-15.70;60.33
66385;BME280;53426;55.872;37.462;2023-01-08T00:57:20;100626.00;;;-15.73;60.19
66385;BME280;53426;55.872;37.462;2023-01-08T00:59:49;100625.22;;;-15.72;60.29
66385;BME280;53426;55.872;37.462;2023-01-08T01:02:14;100622.06;;;-15.64;59.86
66385;BME280;53426;55.872;37.462;2023-01-08T01:04:40;100618.88;;;-15.60;59.87
66385;BME280;53426;55.872;37.462;2023-01-08T01:07:06;100640.72;;;-15.40;59.82
66385;BME280;53426;55.872;37.462;2023-01-08T01:09:31;100630.50;;;-15.42;59.69
66385;BME280;53426;55.872;37.462;2023-01-08T01:11:57;100633.91;;;-15.41;59.44
66385;BME280;53426;55.872;37.462;2023-01-08T01:14:23;100648.44;;;-15.37;58.77
66385;BME280;53426;55.872;37.462;2023-01-08T01:16:49;100647.16;;;-15.50;59.13
66385;BME280;53426;55.872;37.462;2023-01-08T01:19:16;100654.22;;;-15.41;59.31
66385;BME280;53426;55.872;37.462;2023-01-08T01:21:42;100646.94;;;-15.32;59.61
66385;BME280;53426;55.872;37.462;2023-01-08T01:24:10;100644.03;;;-15.19;59.93
66385;BME280;53426;55.872;37.462;2023-01-08T01:26:37;100646.25;;;-15.04;59.13
66385;BME280;53426;55.872;37.462;2023-01-08T01:29:04;100630.81;;;-15.10;59.44
66385;BME280;53426;55.872;37.462;2023-01-08T01:31:32;100631.63;;;-15.11;58.85
66385;BME280;53426;55.872;37.462;2023-01-08T01:33:58;100640.00;;;-15.14;59.06
66385;BME280;53426;55.872;37.462;2023-01-08T01:36:25;100640.22;;;-15.08;59.98
66385;BME280;53426;55.872;37.462;2023-01-08T01:38:55;100625.56;;;-15.15;59.26
66385;BME280;53426;55.872;37.462;2023-01-08T01:41:26;100628.31;;;-15.09;59.51
66385;BME280;53426;55.872;37.462;2023-01-08T01:43:56;100640.00;;;-15.14;59.73
66385;BME280;53426;55.872;37.462;2023-01-08T01:48:55;100618.81;;;-15.14;59.78
66385;BME280;53426;55.872;37.462;2023-01-08T01:51:27;100632.41;;;-14.89;60.44
66385;BME280;53426;55.872;37.462;2023-01-08T01:53:55;100635.78;;;-14.90;60.73
66385;BME280;53426;55.872;37.462;2023-01-08T01:56:21;100620.84;;;-15.04;60.57
66385;BME280;53426;55.872;37.462;2023-01-08T01:58:53;100644.47;;;-14.83;60.33
66385;BME280;53426;55.872;37.462;2023-01-08T02:01:20;100637.72;;;-14.82;59.52
66385;BME280;53426;55.872;37.462;2023-01-08T02:03:47;100636.91;;;-14.81;59.58
66385;BME280;53426;55.872;37.462;2023-01-08T02:06:36;100593.78;;;-15.04;60.20
66385;BME280;53426;55.872;37.462;2023-01-08T02:11:49;100654.19;;;-14.71;60.17
66385;BME280;53426;55.872;37.462;2023-01-08T02:17:15;100645.41;;;-14.81;60.33
66385;BME280;53426;55.872;37.462;2023-01-08T02:20:13;100604.81;;;-15.03;59.40
66385;BME280;53426;55.872;37.462;2023-01-08T02:26:44;100656.00;;;-14.93;60.78
66385;BME280;53426;55.872;37.462;2023-01-08T02:28:43;100648.44;;;-14.91;59.62
66385;BME280;53426;55.872;37.462;2023-01-08T02:31:11;100618.81;;;-15.14;60.28
66385;BME280;53426;55.872;37.462;2023-01-08T02:33:38;100636.97;;;-15.04;59.99
66385;BME280;53426;55.872;37.462;2023-01-08T02:44:57;100641.47;;;-14.97;60.50
66385;BME280;53426;55.872;37.462;2023-01-08T02:50:24;100635.13;;;-15.08;60.36
66385;BME280;53426;55.872;37.462;2023-01-08T02:55:29;100603.63;;;-15.13;60.54
66385;BME280;53426;55.872;37.462;2023-01-08T02:58:00;100631.25;;;-14.98;61.34
66385;BME280;53426;55.872;37.462;2023-01-08T03:00:27;100634.94;;;-14.90;60.32
66385;BME280;53426;55.872;37.462;2023-01-08T03:03:02;100637.47;;;-14.90;60.72
66385;BME280;53426;55.872;37.462;2023-01-08T03:05:30;100622.16;;;-14.92;61.17
66385;BME280;53426;55.872;37.462;2023-01-08T03:07:56;100632.69;;;-14.81;60.92
66385;BME280;53426;55.872;37.462;2023-01-08T03:10:24;100635.28;;;-14.79;60.55
66385;BME280;53426;55.872;37.462;2023-01-08T03:12:55;100632.53;;;-14.86;60.99
66385;BME280;53426;55.872;37.462;2023-01-08T03:15:30;100604.38;;;-14.92;61.41
66385;BME280;53426;55.872;37.462;2023-01-08T03:18:01;100624.56;;;-14.71;60.93
66385;BME280;53426;55.872;37.462;2023-01-08T03:20:30;100630.72;;;-14.64;61.44
66385;BME280;53426;55.872;37.462;2023-01-08T03:23:02;100640.69;;;-14.70;60.17
66385;BME280;53426;55.872;37.462;2023-01-08T03:25:29;100656.44;;;-14.55;61.10
66385;BME280;53426;55.872;37.462;2023-01-08T03:28:00;100665.00;;;-14.53;60.66
66385;BME280;53426;55.872;37.462;2023-01-08T03:30:30;100640.31;;;-14.56;61.57
66385;BME280;53426;55.872;37.462;2023-01-08T03:32:58;100621.50;;;-14.61;61.70
66385;BME280;53426;55.872;37.462;2023-01-08T03:35:27;100639.66;;;-14.50;60.56
66385;BME280;53426;55.872;37.462;2023-01-08T03:40:56;100635.91;;;-14.61;61.29
66385;BME280;53426;55.872;37.462;2023-01-08T03:43:24;100654.22;;;-14.46;62.20
66385;BME280;53426;55.872;37.462;2023-01-08T03:45:55;100616.84;;;-14.49;61.27
66385;BME280;53426;55.872;37.462;2023-01-08T03:48:24;100638.44;;;-14.36;61.96
66385;BME280;53426;55.872;37.462;2023-01-08T03:50:51;100640.53;;;-14.23;61.37
66385;BME280;53426;55.872;37.462;2023-01-08T03:53:17;100651.13;;;-14.11;62.04
66385;BME280;53426;55.872;37.462;2023-01-08T03:55:43;100596.09;;;-14.34;61.60
66385;BME280;53426;55.872;37.462;2023-01-08T03:58:09;100645.06;;;-14.14;61.47
66385;BME280;53426;55.872;37.462;2023-01-08T04:00:35;100646.16;;;-14.08;60.97
66385;BME280;53426;55.872;37.462;2023-01-08T04:03:00;100625.72;;;-14.09;61.56
66385;BME280;53426;55.872;37.462;2023-01-08T04:05:26;100642.75;;;-14.07;60.65
66385;BME280;53426;55.872;37.462;2023-01-08T04:07:55;100641.34;;;-13.98;61.41
66385;BME280;53426;55.872;37.462;2023-01-08T04:10:22;100650.06;;;-13.90;61.98
66385;BME280;53426;55.872;37.462;2023-01-08T04:12:48;100654.38;;;-13.88;61.91
66385;BME280;53426;55.872;37.462;2023-01-08T04:15:14;100633.63;;;-14.00;61.58
66385;BME280;53426;55.872;37.462;2023-01-08T04:17:40;100631.22;;;-13.95;61.84
66385;BME280;53426;55.872;37.462;2023-01-08T04:20:07;100638.19;;;-13.90;61.80
66385;BME280;53426;55.872;37.462;2023-01-08T04:22:33;100626.59;;;-14.09;61.00
66385;BME280;53426;55.872;37.462;2023-01-08T04:24:59;100630.44;;;-13.94;62.13
66385;BME280;53426;55.872;37.462;2023-01-08T04:27:25;100647.16;;;-13.74;61.77
66385;BME280;53426;55.872;37.462;2023-01-08T04:29:51;100655.47;;;-13.80;62.01
66385;BME280;53426;55.872;37.462;2023-01-08T04:32:17;100638.25;;;-13.88;60.74
66385;BME280;53426;55.872;37.462;2023-01-08T04:34:43;100649.31;;;-13.88;61.17
66385;BME280;53426;55.872;37.462;2023-01-08T04:37:08;100577.78;;;-14.24;61.21
66385;BME280;53426;55.872;37.462;2023-01-08T04:39:34;100651.03;;;-13.87;61.74
66385;BME280;53426;55.872;37.462;2023-01-08T04:42:00;100615.78;;;-14.02;61.51
66385;BME280;53426;55.872;37.462;2023-01-08T04:44:26;100648.00;;;-13.75;62.07
66385;BME280;53426;55.872;37.462;2023-01-08T04:46:51;100647.19;;;-14.01;62.28
66385;BME280;53426;55.872;37.462;2023-01-08T04:49:17;100606.31;;;-14.06;62.44
66385;BME280;53426;55.872;37.462;2023-01-08T04:51:43;100643.06;;;-13.97;61.97
66385;BME280;53426;55.872;37.462;2023-01-08T04:54:09;100654.78;;;-14.03;62.47
66385;BME280;53426;55.872;37.462;2023-01-08T04:56:35;100631.69;;;-14.09;63.07
66385;BME280;53426;55.872;37.462;2023-01-08T04:59:01;100641.81;;;-13.83;62.35
66385;BME280;53426;55.872;37.462;2023-01-08T05:01:28;100641.06;;;-13.79;62.49
66385;BME280;53426;55.872;37.462;2023-01-08T05:03:56;100616.13;;;-13.91;63.11
66385;BME280;53426;55.872;37.462;2023-01-08T05:06:23;100564.50;;;-14.42;63.05
66385;BME280;53426;55.872;37.462;2023-01-08T05:08:49;100542.50;;;-14.41;62.42
66385;BME280;53426;55.872;37.462;2023-01-08T05:11:14;100572.59;;;-14.27;62.74
66385;BME280;53426;55.872;37.462;2023-01-08T05:13:40;100639.78;;;-13.67;63.46
66385;BME280;53426;55.872;37.462;2023-01-08T05:16:06;100638.22;;;-13.62;62.72
66385;BME280;53426;55.872;37.462;2023-01-08T05:18:32;100598.72;;;-13.77;62.03
66385;BME280;53426;55.872;37.462;2023-01-08T05:20:59;100634.09;;;-13.58;61.84
66385;BME280;53426;55.872;37.462;2023-01-08T05:23:25;100643.88;;;-13.43;62.59
66385;BME280;53426;55.872;37.462;2023-01-08T05:25:51;100604.19;;;-13.65;62.16
66385;BME280;53426;55.872;37.462;2023-01-08T05:28:17;100639.78;;;-13.38;61.68
66385;BME280;53426;55.872;37.462;2023-01-08T05:30:43;100636.19;;;-13.45;62.41
66385;BME280;53426;55.872;37.462;2023-01-08T05:33:08;100625.22;;;-13.42;61.37
66385;BME280;53426;55.872;37.462;2023-01-08T05:35:34;100648.28;;;-13.38;60.92
66385;BME280;53426;55.872;37.462;2023-01-08T05:38:00;100643.94;;;-13.42;61.92
66385;BME280;53426;55.872;37.462;2023-01-08T05:40:26;100641.53;;;-13.36;62.31
66385;BME280;53426;55.872;37.462;2023-01-08T05:42:51;100645.81;;;-13.35;61.84
66385;BME280;53426;55.872;37.462;2023-01-08T05:45:18;100636.53;;;-13.33;61.64
66385;BME280;53426;55.872;37.462;2023-01-08T05:47:47;100630.59;;;-13.33;61.30
66385;BME280;53426;55.872;37.462;2023-01-08T05:50:13;100633.88;;;-13.36;61.12
66385;BME280;53426;55.872;37.462;2023-01-08T05:52:39;100638.97;;;-13.36;61.32
66385;BME280;53426;55.872;37.462;2023-01-08T05:55:05;100593.31;;;-13.60;61.10
66385;BME280;53426;55.872;37.462;2023-01-08T05:57:32;100636.31;;;-13.40;61.48
66385;BME280;53426;55.872;37.462;2023-01-08T05:59:59;100608.47;;;-13.64;61.16
66385;BME280;53426;55.872;37.462;2023-01-08T06:02:25;100609.16;;;-13.68;61.85
66385;BME280;53426;55.872;37.462;2023-01-08T06:04:50;100636.00;;;-13.51;62.49
66385;BME280;53426;55.872;37.462;2023-01-08T06:07:16;100619.31;;;-13.70;61.85
66385;BME280;53426;55.872;37.462;2023-01-08T06:09:42;100636.81;;;-13.52;61.22
66385;BME280;53426;55.872;37.462;2023-01-08T06:12:08;100623.31;;;-13.49;61.29
66385;BME280;53426;55.872;37.462;2023-01-08T06:14:34;100623.25;;;-13.51;61.40
66385;BME280;53426;55.872;37.462;2023-01-08T06:16:59;100612.56;;;-13.68;61.16
66385;BME280;53426;55.872;37.462;2023-01-08T06:19:26;100591.09;;;-13.77;61.30
66385;BME280;53426;55.872;37.462;2023-01-08T06:21:55;100587.63;;;-13.79;62.00
66385;BME280;53426;55.872;37.462;2023-01-08T06:24:21;100608.91;;;-13.77;62.21
66385;BME280;53426;55.872;37.462;2023-01-08T06:26:47;100647.66;;;-13.59;62.19
66385;BME280;53426;55.872;37.462;2023-01-08T06:29:12;100599.81;;;-13.69;62.75
66385;BME280;53426;55.872;37.462;2023-01-08T06:31:38;100646.69;;;-13.34;62.28
66385;BME280;53426;55.872;37.462;2023-01-08T06:34:04;100622.00;;;-13.37;62.27
66385;BME280;53426;55.872;37.462;2023-01-08T06:36:30;100640.25;;;-13.22;61.79
66385;BME280;53426;55.872;37.462;2023-01-08T06:38:56;100641.81;;;-13.27;61.29
66385;BME280;53426;55.872;37.462;2023-01-08T06:41:22;100642.94;;;-13.17;61.09
66385;BME280;53426;55.872;37.462;2023-01-08T06:43:48;100619.47;;;-13.35;61.24
66385;BME280;53426;55.872;37.462;2023-01-08T06:46:13;100649.91;;;-13.10;60.44
66385;BME280;53426;55.872;37.462;2023-01-08T06:48:39;100640.44;;;-13.16;60.78
66385;BME280;53426;55.872;37.462;2023-01-08T06:51:06;100649.91;;;-13.10;60.22
66385;BME280;53426;55.872;37.462;2023-01-08T06:53:33;100660.16;;;-13.07;60.24
66385;BME280;53426;55.872;37.462;2023-01-08T06:55:59;100604.75;;;-13.45;60.29
66385;BME280;53426;55.872;37.462;2023-01-08T06:58:26;100673.97;;;-13.00;60.07
66385;BME280;53426;55.872;37.462;2023-01-08T07:00:52;100668.84;;;-13.00;59.38
66385;BME280;53426;55.872;37.462;2023-01-08T07:03:18;100615.03;;;-13.42;60.00
66385;BME280;53426;55.872;37.462;2023-01-08T07:05:45;100660.56;;;-12.93;59.55
66385;BME280;53426;55.872;37.462;2023-01-08T07:08:15;100652.00;;;-12.95;59.31
66385;BME280;53426;55.872;37.462;2023-01-08T07:10:42;100665.00;;;-12.86;58.48
66385;BME280;53426;55.872;37.462;2023-01-08T07:13:11;100620.31;;;-13.05;59.03
66385;BME280;53426;55.872;37.462;2023-01-08T07:15:38;100661.03;;;-12.77;58.83
66385;BME280;53426;55.872;37.462;2023-01-08T07:18:05;100667.06;;;-12.73;58.06
66385;BME280;53426;55.872;37.462;2023-01-08T07:20:32;100661.16;;;-12.72;58.38
66385;BME280;53426;55.872;37.462;2023-01-08T07:23:02;100619.09;;;-12.86;57.67
66385;BME280;53426;55.872;37.462;2023-01-08T07:25:32;100588.22;;;-12.65;58.26
66385;BME280;53426;55.872;37.462;2023-01-08T07:27:59;100672.59;;;-11.14;56.81
66385;BME280;53426;55.872;37.462;2023-01-08T07:30:26;100624.53;;;-10.40;54.76
66385;BME280;53426;55.872;37.462;2023-01-08T07:32:52;100668.38;;;-9.08;52.64
66385;BME280;53426;55.872;37.462;2023-01-08T07:35:20;100599.50;;;-8.74;49.70
66385;BME280;53426;55.872;37.462;2023-01-08T07:37:45;100662.88;;;-7.77;47.82
66385;BME280;53426;55.872;37.462;2023-01-08T07:40:18;100524.47;;;-8.46;46.76
66385;BME280;53426;55.872;37.462;2023-01-08T07:42:46;100528.25;;;-8.98;46.26
66385;BME280;53426;55.872;37.462;2023-01-08T07:45:12;100612.13;;;-8.93;46.44
66385;BME280;53426;55.872;37.462;2023-01-08T07:47:38;100707.09;;;-8.91;47.64
66385;BME280;53426;55.872;37.462;2023-01-08T07:50:04;100694.50;;;-9.36;48.27
66385;BME280;53426;55.872;37.462;2023-01-08T07:52:30;100693.75;;;-9.85;50.26
66385;BME280;53426;55.872;37.462;2023-01-08T07:54:56;100693.28;;;-10.12;50.96
66385;BME280;53426;55.872;37.462;2023-01-08T07:57:21;100676.56;;;-10.41;51.58
66385;BME280;53426;55.872;37.462;2023-01-08T07:59:47;100624.25;;;-11.02;52.46
66385;BME280;53426;55.872;37.462;2023-01-08T08:02:13;100677.03;;;-10.62;53.03
66385;BME280;53426;55.872;37.462;2023-01-08T08:04:39;100678.00;;;-10.55;53.05
66385;BME280;53426;55.872;37.462;2023-01-08T08:07:04;100685.84;;;-10.90;53.98
66385;BME280;53426;55.872;37.462;2023-01-08T08:09:30;100674.75;;;-10.90;54.04
66385;BME280;53426;55.872;37.462;2023-01-08T08:11:58;100640.94;;;-11.19;54.34
66385;BME280;53426;55.872;37.462;2023-01-08T08:14:25;100644.84;;;-10.94;54.85
66385;BME280;53426;55.872;37.462;2023-01-08T08:16:50;100675.28;;;-10.65;54.08
66385;BME280;53426;55.872;37.462;2023-01-08T08:19:16;100687.75;;;-10.38;54.32
66385;BME280;53426;55.872;37.462;2023-01-08T08:21:43;100681.09;;;-10.28;53.97
66385;BME280;53426;55.872;37.462;2023-01-08T08:24:08;100671.25;;;-10.04;53.84
66385;BME280;53426;55.872;37.462;2023-01-08T08:26:34;100623.34;;;-10.09;52.91
66385;BME280;53426;55.872;37.462;2023-01-08T08:29:00;100689.53;;;-9.83;52.96
66385;BME280;53426;55.872;37.462;2023-01-08T08:31:26;100686.44;;;-10.13;53.13
66385;BME280;53426;55.872;37.462;2023-01-08T08:33:51;100677.59;;;-10.33;54.03
66385;BME280;53426;55.872;37.462;2023-01-08T08:36:17;100695.31;;;-10.44;54.15
66385;BME280;53426;55.872;37.462;2023-01-08T08:38:43;100682.63;;;-10.38;54.53
66385;BME280;53426;55.872;37.462;2023-01-08T08:41:09;100649.28;;;-10.41;54.14
66385;BME280;53426;55.872;37.462;2023-01-08T08:43:35;100655.56;;;-10.24;53.85
66385;BME280;53426;55.872;37.462;2023-01-08T08:46:01;100626.41;;;-10.30;53.17
66385;BME280;53426;55.872;37.462;2023-01-08T08:48:27;100670.06;;;-9.70;53.03
66385;BME280;53426;55.872;37.462;2023-01-08T08:50:53;100680.47;;;-9.01;52.18
66385;BME280;53426;55.872;37.462;2023-01-08T08:53:18;100626.47;;;-8.31;51.21
66385;BME280;53426;55.872;37.462;2023-01-08T08:55:44;100652.19;;;-7.01;48.65
66385;BME280;53426;55.872;37.462;2023-01-08T08:58:11;100630.06;;;-5.79;47.02
66385;BME280;53426;55.872;37.462;2023-01-08T09:00:39;100617.84;;;-5.00;44.18
66385;BME280;53426;55.872;37.462;2023-01-08T09:03:05;100648.28;;;-4.00;42.46
66385;BME280;53426;55.872;37.462;2023-01-08T09:05:34;100598.41;;;-4.17;41.48
66385;BME280;53426;55.872;37.462;2023-01-08T09:08:10;100633.97;;;-4.52;41.98
66385;BME280;53426;55.872;37.462;2023-01-08T09:11:02;100599.09;;;-5.57;42.52
66385;BME280;53426;55.872;37.462;2023-01-08T09:13:27;100597.47;;;-6.06;43.17
66385;BME280;53426;55.872;37.462;2023-01-08T09:15:57;100678.22;;;-6.04;43.17
66385;BME280;53426;55.872;37.462;2023-01-08T09:18:23;100650.59;;;-6.77;45.50
66385;BME280;53426;55.872;37.462;2023-01-08T09:20:49;100679.75;;;-6.79;45.41
66385;BME280;53426;55.872;37.462;2023-01-08T09:23:15;100670.19;;;-7.01;46.57
66385;BME280;53426;55.872;37.462;2023-01-08T09:25:40;100626.00;;;-7.80;46.93
66385;BME280;53426;55.872;37.462;2023-01-08T09:28:09;100628.19;;;-8.23;48.54
66385;BME280;53426;55.872;37.462;2023-01-08T09:30:39;100635.78;;;-8.41;48.48
66385;BME280;53426;55.872;37.462;2023-01-08T09:33:06;100676.16;;;-8.25;48.88
66385;BME280;53426;55.872;37.462;2023-01-08T09:35:32;100652.94;;;-8.37;49.38
66385;BME280;53426;55.872;37.462;2023-01-08T09:37:58;100626.47;;;-8.25;49.23
66385;BME280;53426;55.872;37.462;2023-01-08T09:41:01;100625.88;;;-7.95;49.03
66385;BME280;53426;55.872;37.462;2023-01-08T09:43:45;100653.81;;;-7.14;47.84
66385;BME280;53426;55.872;37.462;2023-01-08T09:46:17;100645.25;;;-7.21;47.83
66385;BME280;53426;55.872;37.462;2023-01-08T09:49:13;100643.59;;;-7.09;48.21
66385;BME280;53426;55.872;37.462;2023-01-08T09:51:50;100657.38;;;-6.94;47.22
66385;BME280;53426;55.872;37.462;2023-01-08T09:57:54;100581.97;;;-5.97;45.72
66385;BME280;53426;55.872;37.462;2023-01-08T10:00:32;100645.25;;;-4.69;44.24
66385;BME280;53426;55.872;37.462;2023-01-08T10:03:02;100572.41;;;-5.51;42.88
66385;BME280;53426;55.872;37.462;2023-01-08T10:05:46;100517.50;;;-6.05;44.77
66385;BME280;53426;55.872;37.462;2023-01-08T10:08:13;100652.38;;;-5.50;44.01
66385;BME280;53426;55.872;37.462;2023-01-08T10:10:40;100654.16;;;-5.79;44.61
66385;BME280;53426;55.872;37.462;2023-01-08T10:13:21;100581.06;;;-6.67;45.54
66385;BME280;53426;55.872;37.462;2023-01-08T10:15:47;100538.84;;;-7.32;45.99
66385;BME280;53426;55.872;37.462;2023-01-08T10:18:13;100559.22;;;-7.68;46.99
66385;BME280;53426;55.872;37.462;2023-01-08T10:20:39;100668.25;;;-7.40;47.33
66385;BME280;53426;55.872;37.462;2023-01-08T10:23:32;100546.88;;;-8.21;48.76
66385;BME280;53426;55.872;37.462;2023-01-08T10:26:06;100651.03;;;-7.55;48.59
66385;BME280;53426;55.872;37.462;2023-01-08T10:28:36;100527.25;;;-8.11;48.37
66385;BME280;53426;55.872;37.462;2023-01-08T10:31:08;100640.38;;;-6.45;47.83
66385;BME280;53426;55.872;37.462;2023-01-08T10:33:40;100662.69;;;-5.34;45.54
66385;BME280;53426;55.872;37.462;2023-01-08T10:37:26;100630.00;;;-5.38;45.17
66385;BME280;53426;55.872;37.462;2023-01-08T10:39:57;100613.72;;;-5.69;44.21
66385;BME280;53426;55.872;37.462;2023-01-08T10:43:11;100576.81;;;-6.05;44.69
66385;BME280;53426;55.872;37.462;2023-01-08T10:45:42;100645.50;;;-5.47;44.38
66385;BME280;53426;55.872;37.462;2023-01-08T10:48:35;100462.56;;;-6.98;43.85
66385;BME280;53426;55.872;37.462;2023-01-08T10:51:23;100607.72;;;-6.52;44.72
66385;BME280;53426;55.872;37.462;2023-01-08T10:53:51;100619.59;;;-6.99;45.01
66385;BME280;53426;55.872;37.462;2023-01-08T10:56:20;100525.53;;;-8.11;46.72
66385;BME280;53426;55.872;37.462;2023-01-08T10:59:18;100656.97;;;-7.62;46.92
66385;BME280;53426;55.872;37.462;2023-01-08T11:02:21;100661.13;;;-7.81;47.30
66385;BME280;53426;55.872;37.462;2023-01-08T11:04:50;100553.06;;;-8.97;48.15
66385;BME280;53426;55.872;37.462;2023-01-08T11:07:19;100665.59;;;-8.55;49.43
66385;BME280;53426;55.872;37.462;2023-01-08T11:09:48;100635.50;;;-8.67;49.46
66385;BME280;53426;55.872;37.462;2023-01-08T11:12:37;100647.59;;;-8.58;50.38
66385;BME280;53426;55.872;37.462;2023-01-08T11:15:36;100652.66;;;-8.64;50.06
66385;BME280;53426;55.872;37.462;2023-01-08T11:18:23;100659.22;;;-8.88;50.33
66385;BME280;53426;55.872;37.462;2023-01-08T11:20:51;100650.25;;;-9.21;50.47
66385;BME280;53426;55.872;37.462;2023-01-08T11:23:19;100663.16;;;-9.17;50.88
66385;BME280;53426;55.872;37.462;2023-01-08T11:26:17;100660.72;;;-9.06;51.06
66385;BME280;53426;55.872;37.462;2023-01-08T11:29:02;100652.34;;;-8.92;50.80
66385;BME280;53426;55.872;37.462;2023-01-08T11:31:39;100655.00;;;-8.84;50.67
66385;BME280;53426;55.872;37.462;2023-01-08T11:37:22;100643.69;;;-9.00;50.24
66385;BME280;53426;55.872;37.462;2023-01-08T11:39:50;100614.34;;;-9.23;50.69
66385;BME280;53426;55.872;37.462;2023-01-08T11:48:59;100633.31;;;-9.72;51.65
66385;BME280;53426;55.872;37.462;2023-01-08T11:54:03;100655.94;;;-9.98;52.70
66385;BME280;53426;55.872;37.462;2023-01-08T11:56:56;100656.72;;;-10.05;52.89
66385;BME280;53426;55.872;37.462;2023-01-08T12:02:50;100649.56;;;-10.26;52.98
66385;BME280;53426;55.872;37.462;2023-01-08T12:10:43;100650.03;;;-10.46;53.57
66385;BME280;53426;55.872;37.462;2023-01-08T12:15:55;100643.88;;;-10.56;54.48
66385;BME280;53426;55.872;37.462;2023-01-08T12:29:34;100659.38;;;-10.93;55.54
66385;BME280;53426;55.872;37.462;2023-01-08T12:32:13;100658.72;;;-10.83;55.66
66385;BME280;53426;55.872;37.462;2023-01-08T12:34:48;100665.56;;;-10.82;55.53
66385;BME280;53426;55.872;37.462;2023-01-08T12:37:25;100653.47;;;-10.89;55.50
66385;BME280;53426;55.872;37.462;2023-01-08T12:40:19;100670.69;;;-10.82;55.49
66385;BME280;53426;55.872;37.462;2023-01-08T12:42:46;100672.28;;;-10.87;55.76
66385;BME280;53426;55.872;37.462;2023-01-08T12:45:29;100618.59;;;-11.29;56.21
66385;BME280;53426;55.872;37.462;2023-01-08T12:48:14;100583.31;;;-11.46;56.19
66385;BME280;53426;55.872;37.462;2023-01-08T12:58:58;100667.78;;;-10.99;56.17
66385;BME280;53426;55.872;37.462;2023-01-08T13:01:51;100601.44;;;-11.35;56.36
66385;BME280;53426;55.872;37.462;2023-01-08T13:04:20;100668.56;;;-11.03;56.21
66385;BME280;53426;55.872;37.462;2023-01-08T13:09:24;100660.69;;;-11.12;56.33
66385;BME280;53426;55.872;37.462;2023-01-08T13:12:32;100646.50;;;-11.38;56.55
66385;BME280;53426;55.872;37.462;2023-01-08T13:15:20;100666.03;;;-11.42;56.66
66385;BME280;53426;55.872;37.462;2023-01-08T13:17:48;100596.09;;;-11.86;56.83
66385;BME280;53426;55.872;37.462;2023-01-08T13:20:28;100568.44;;;-12.04;56.40
66385;BME280;53426;55.872;37.462;2023-01-08T13:23:03;100629.53;;;-11.75;56.64
66385;BME280;53426;55.872;37.462;2023-01-08T13:28:42;100671.56;;;-11.60;57.57
66385;BME280;53426;55.872;37.462;2023-01-08T13:33:46;100693.53;;;-11.68;57.74
66385;BME280;53426;55.872;37.462;2023-01-08T13:36:28;100658.97;;;-11.91;57.21
66385;BME280;53426;55.872;37.462;2023-01-08T13:39:04;100683.09;;;-11.78;57.95
66385;BME280;53426;55.872;37.462;2023-01-08T13:41:33;100620.06;;;-12.15;57.57
66385;BME280;53426;55.872;37.462;2023-01-08T13:44:00;100683.13;;;-11.77;57.77
66385;BME280;53426;55.872;37.462;2023-01-08T13:46:29;100678.66;;;-11.85;57.32
66385;BME280;53426;55.872;37.462;2023-01-08T13:49:09;100651.66;;;-12.10;57.87
66385;BME280;53426;55.872;37.462;2023-01-08T13:51:45;100673.97;;;-12.03;57.23
66385;BME280;53426;55.872;37.462;2023-01-08T13:56:39;100648.44;;;-12.38;57.46
66385;BME280;53426;55.872;37.462;2023-01-08T13:59:05;100695.78;;;-12.16;58.15
66385;BME280;53426;55.872;37.462;2023-01-08T14:01:34;100670.41;;;-12.44;58.27
66385;BME280;53426;55.872;37.462;2023-01-08T14:04:00;100713.38;;;-12.26;58.34
66385;BME280;53426;55.872;37.462;2023-01-08T14:06:26;100712.38;;;-12.33;58.69
66385;BME280;53426;55.872;37.462;2023-01-08T14:08:55;100676.81;;;-12.58;58.65
66385;BME280;53426;55.872;37.462;2023-01-08T14:11:43;100670.59;;;-12.68;58.61
66385;BME280;53426;55.872;37.462;2023-01-08T14:14:16;100659.19;;;-12.81;59.02